Lamy, New Mexico
Current Conditions -  °F | °C
As of 9:53 PM on Tuesday 25 Nov 2014 (Local Time) from KSAF Reporting Station
Clear Clear  
Wind Chill: 26°   Ceiling: Unl
Heat Index: 35°   Visibility: 10mi
Dew Point: 10°   Wind: 14mph
Humidity: 35%   Direction: 340°NNW
Pressure: 30.26"   Gusts: NA
Location:  35.48°N, 105.88°W
Report Text: KSAF 260453Z AUTO 34012KT 10SM CLR 02/M12 A3026 RMK AO2 SLP239 T00171122
Loading
Personal Weather Stations






























Interactive Weather Map New forecast layout! Learn more

10-Day Weather Forecast

Advertisements
Track Severe Weather on mobile